Latest Coastal Weather Observations for Cape Leeuwin

IDW60701

Issued at 2:13 pm WST Tuesday 28 March 2017 (issued every 10 minutes, with the page automatically refreshed every 10 minutes)

About coastal observations | Map of coastal stations | Coastal observations for WA | Marine services | Other Formats
Station Details ID: 009518 Name: CAPE LEEUWIN Lat: -34.37 Lon: 115.14 Height: 13.0 m
Data from the previous 72 hours. | See also: Recent months at Cape Leeuwin
Date/Time
WST
Temp
°C
Wind Pressure Rain since
9am
mm
Weather Cloud Vis
km
Sea
Height
m
Swell
Dir  Spd
kts
Gust
kts
hPa Trend Height
m
Period
s
Dir
28/02:00pm 19.9 SW 16 19 1018.5 - 0.2 - - - - - - -
28/01:30pm 19.8 WSW 18 21 1018.4 - 0.0 - - - - - - -
28/01:00pm 19.6 WSW 16 19 1018.5 - 0.0 - - - - - - -
28/12:30pm 20.2 WSW 16 19 1018.8 - 0.0 - - - - - - -
28/12:00pm 19.7 WSW 15 17 1018.9 - 0.0 - - - - - - -
28/11:30am 18.7 WSW 20 23 1018.9 - 0.0 - - - - - - -
28/11:00am 18.9 WSW 16 21 1019.1 - 0.0 - - - - - - -
28/10:30am 18.8 WSW 21 25 1019.2 - 0.0 - - - - - - -
28/10:00am 18.4 WSW 17 21 1019.3 - 0.0 - - - - - - -
28/09:30am 18.3 WSW 17 21 1019.2 - 0.0 - - - - - - -
28/09:00am 18.1 WSW 18 23 1019.1 - 0.6 - - - - - - -
28/08:30am 18.3 WSW 18 22 1018.8 - 0.6 - - - - - - -
28/08:00am 17.9 WSW 18 22 1018.5 - 0.6 - - - - - - -
28/07:30am 17.9 WSW 17 20 1018.3 - 0.6 - - - - - - -
28/07:00am 17.7 WSW 19 22 1018.1 - 0.6 - - - - - - -
28/06:30am 17.6 WSW 19 25 1018.1 - 0.6 - - - - - - -
28/06:00am 18.0 WSW 19 22 1018.0 - 0.6 - - - - - - -
28/05:30am 17.6 W 18 23 1018.1 - 0.6 - - - - - - -
28/05:00am 17.4 W 15 21 1017.9 - 0.6 - - - - - - -
28/04:30am 17.8 W 15 18 1017.8 - 0.6 - - - - - - -
28/04:00am 16.9 WNW 14 17 1017.8 - 0.6 - - - - - - -
28/03:30am 17.2 WNW 17 20 1017.9 - 0.6 - - - - - - -
28/03:00am 17.5 W 16 18 1017.9 - 0.6 Recent precip. - - - - - -
28/02:30am 17.6 W 14 17 1018.0 - 0.4 - - - - - - -
28/02:00am 16.7 W 12 14 1018.3 - 0.4 - - - - - - -
28/01:30am 17.5 WNW 9 11 1018.4 - 0.0 - - - - - - -
28/01:00am 17.6 WNW 9 12 1018.4 - 0.0 - - - - - - -
28/12:30am 17.1 W 12 16 1018.7 - 0.0 - - - - - - -
28/12:00am 17.6 WSW 14 16 1018.7 - 0.0 - - - - - - -
 
Date/Time
WST
Temp
°C
Wind Pressure Rain since
9am
mm
Weather Cloud Vis
km
Sea
Height
m
Swell
Dir  Spd
kts
Gust
kts
hPa Trend Height
m
Period
s
Dir
27/11:30pm 17.7 W 13 16 1019.1 - 0.0 - - - - - - -
27/11:00pm 17.5 WSW 15 21 1019.2 - 0.0 - - - - - - -
27/10:30pm 17.9 WSW 13 18 1019.3 - 0.0 - - - - - - -
27/10:00pm 17.9 WSW 14 16 1019.6 - 0.0 - - - - - - -
27/09:30pm 17.8 W 14 17 1019.7 - 0.0 - - - - - - -
27/09:00pm 17.9 W 11 14 1019.8 - 0.0 - - - - - - -
27/08:30pm 17.9 W 13 16 1019.9 - 0.0 - - - - - - -
27/08:00pm 17.9 W 13 17 1020.0 - 0.0 - - - - - - -
27/07:30pm 17.5 W 13 15 1020.0 - 0.0 - - - - - - -
27/07:00pm 17.6 W 14 18 1020.0 - 0.0 - - - - - - -
27/06:30pm 17.5 W 13 18 1020.0 - 0.0 - - - - - - -
27/06:00pm 17.8 W 15 18 1020.1 - 0.0 - - - - - - -
27/05:30pm 17.6 W 15 19 1020.2 - 0.0 - - - - - - -
27/05:00pm 17.8 W 15 19 1020.2 - 0.0 - - - - - - -
27/04:30pm 17.8 W 16 20 1020.3 - 0.0 - - - - - - -
27/04:00pm 18.1 W 17 21 1020.4 - 0.0 - - - - - - -
27/03:30pm 18.2 W 17 20 1020.6 - 0.0 - - - - - - -
27/03:00pm 18.3 W 16 19 1020.7 - 0.0 - - - - - - -
27/02:30pm 18.6 WNW 15 18 1020.8 - 0.0 - - - - - - -
27/02:00pm 18.6 W 15 19 1021.0 - 0.0 - - - - - - -
27/01:30pm 18.3 W 15 17 1021.3 - 0.0 - - - - - - -
27/01:00pm 19.0 W 16 20 1021.7 - 0.0 - - - - - - -
27/12:30pm 18.0 W 15 17 1022.0 - 0.0 - - - - - - -
27/12:00pm 18.3 W 14 17 1022.4 - 0.0 - - - - - - -
27/11:30am 18.2 W 14 17 1022.6 - 0.0 - - - - - - -
27/11:00am 18.1 W 12 16 1022.9 - 0.0 - - - - - - -
27/10:30am 18.0 W 9 12 1022.9 - 0.0 - - - - - - -
27/10:00am 18.2 W 11 14 1022.9 - 0.0 - - - - - - -
27/09:30am 17.5 W 11 14 1022.8 - 0.0 - - - - - - -
27/09:00am 17.4 W 11 14 1022.6 - 0.8 - - - - - - -
27/08:30am 17.2 W 11 15 1022.4 - 0.8 - - - - - - -
27/08:00am 17.1 WSW 11 15 1022.3 - 0.8 - - - - - - -
27/07:30am 16.9 WSW 11 14 1022.1 - 0.8 - - - - - - -
27/07:00am 16.7 WSW 10 13 1021.8 - 0.8 - - - - - - -
27/06:30am 16.5 WSW 10 14 1021.5 - 0.8 - - - - - - -
27/06:00am 16.6 WSW 11 14 1021.1 - 0.8 - - - - - - -
27/05:30am 16.5 WSW 11 16 1020.8 - 0.8 - - - - - - -
27/05:00am 16.7 WSW 13 17 1020.6 - 0.8 - - - - - - -
27/04:30am 16.5 SW 11 14 1020.4 - 0.8 - - - - - - -
27/04:00am 16.4 SW 11 14 1020.2 - 0.8 - - - - - - -
27/03:30am 16.4 SW 12 16 1020.2 - 0.8 - - - - - - -
27/03:00am 16.3 SW 11 14 1020.1 - 0.8 - - - - - - -
27/02:30am 16.2 SW 13 15 1020.0 - 0.8 - - - - - - -
27/02:00am 16.2 SW 12 15 1020.1 - 0.8 - - - - - - -
27/01:30am 16.2 SW 12 16 1020.0 - 0.8 - - - - - - -
27/01:00am 16.3 SSW 13 17 1020.0 - 0.8 - - - - - - -
27/12:30am 16.4 SW 14 18 1020.2 - 0.8 - - - - - - -
27/12:00am 16.6 SW 16 21 1020.4 - 0.8 - - - - - - -
 
Date/Time
WST
Temp
°C
Wind Pressure Rain since
9am
mm
Weather Cloud Vis
km
Sea
Height
m
Swell
Dir  Spd
kts
Gust
kts
hPa Trend Height
m
Period
s
Dir
26/11:30pm 16.9 SW 16 21 1020.5 - 0.8 - - - - - - -
26/11:00pm 16.6 SW 17 22 1020.1 - 0.8 - - - - - - -
26/10:30pm 16.8 SW 16 20 1020.2 - 0.8 - - - - - - -
26/10:00pm 16.8 SW 19 22 1020.2 - 0.8 - - - - - - -
26/09:30pm 16.7 SW 20 24 1019.9 - 0.8 - - - - - - -
26/09:00pm 16.8 SW 18 22 1019.5 - 0.8 - - - - - - -
26/08:30pm 16.7 SW 19 25 1019.2 - 0.8 - - - - - - -
26/08:00pm 16.7 SW 20 24 1019.0 - 0.8 - - - - - - -
26/07:30pm 16.8 SW 21 26 1018.7 - 0.8 - - - - - - -
26/07:00pm 17.0 SW 21 27 1018.0 - 0.8 - - - - - - -
26/06:30pm 16.9 SW 22 26 1017.8 - 0.8 - - - - - - -
26/06:00pm 17.2 WSW 23 27 1017.2 - 0.8 - - - - - - -
26/05:30pm 16.8 SW 22 29 1016.9 - 0.8 - - - - - - -
26/05:00pm 17.7 WSW 24 29 1016.5 - 0.8 - - - - - - -
26/04:30pm 17.2 WSW 25 30 1016.2 - 0.8 - - - - - - -
26/04:00pm 18.2 WSW 26 31 1015.6 - 0.8 - - - - - - -
26/03:30pm 18.0 WSW 26 34 1015.0 - 0.8 - - - - - - -
26/03:00pm 18.4 WSW 28 34 1014.8 - 0.6 - - - - - - -
26/02:30pm 19.0 WSW 26 33 1014.5 - 0.6 - - - - - - -
26/02:00pm 18.1 W 29 35 1014.2 - 0.6 - - - - - - -
26/01:30pm 18.4 WSW 30 36 1013.9 - 0.6 - - - - - - -
26/01:00pm 17.6 WSW 30 36 1013.8 - 0.6 - - - - - - -
26/12:30pm 15.8 W 31 41 1013.8 - 0.6 - - - - - - -
26/12:18pm 17.8 W 31 42 1013.3 - 0.6 - - - - - - -
26/12:00pm 17.9 W 32 38 1013.2 - 0.6 Recent precip. - - - - - -
26/11:40am 17.2 WSW 29 39 1012.7 - 0.6 - - - - - - -
26/11:30am 16.6 WSW 30 36 1012.7 - 0.4 - - - - - - -
26/11:00am 17.9 W 32 39 1012.2 - 0.4 - - - - - - -
26/10:42am 17.9 W 33 43 1011.9 - 0.4 - - - - - - -
26/10:30am 17.7 W 33 38 1011.8 - 0.2 - - - - - - -
26/10:00am 16.8 W 29 34 1011.4 - 0.2 - - - - - - -
26/09:41am 17.0 W 32 46 1011.1 - 0.0 - - - - - - -
26/09:30am 17.6 W 33 39 1010.8 - 0.0 - - - - - - -
26/09:00am 17.1 W 32 41 1010.5 - 3.2 - - - - - - -
26/08:30am 17.2 W 31 38 1010.1 - 3.2 - - - - - - -
26/08:00am 17.3 W 32 39 1009.5 - 3.2 - - - - - - -
26/07:30am 16.9 WSW 31 38 1009.0 - 3.2 - - - - - - -
26/07:00am 17.0 W 31 37 1008.5 - 3.2 - - - - - - -
26/06:33am 17.1 W 31 45 1008.0 - 3.2 - - - - - - -
26/06:30am 17.1 W 30 37 1008.0 - 3.2 - - - - - - -
26/06:04am 17.7 W 31 41 1007.5 - 3.2 - - - - - - -
26/06:00am 17.4 W 33 41 1007.5 - 3.2 - - - - - - -
26/05:30am 17.4 W 33 37 1007.0 - 3.2 - - - - - - -
26/05:00am 17.2 W 32 38 1006.9 - 3.2 - - - - - - -
26/04:30am 17.4 W 33 39 1006.6 - 3.2 - - - - - - -
26/04:00am 17.5 W 33 41 1006.0 - 3.2 - - - - - - -
26/03:53am 17.4 WSW 31 41 1006.1 - 3.2 - - - - - - -
26/03:30am 17.1 W 27 32 1006.0 - 3.2 - - - - - - -
26/03:00am 16.2 W 31 38 1006.0 - 3.2 Recent precip. - - - - - -
26/02:30am 16.2 W 33 43 1006.2 - 3.2 - - - - - - -
26/02:00am 16.9 WSW 33 40 1005.6 - 3.0 - - - - - - -
26/01:30am 16.2 WSW 33 40 1005.6 - 2.6 - - - - - - -
26/01:27am 16.4 WSW 32 39 1005.6 - 2.2 - - - - - - -
26/01:00am 17.1 W 32 40 1005.1 - 1.6 - - - - - - -
26/12:30am 17.4 W 31 47 1005.2 - 1.2 - - - - - - -
26/12:22am 16.5 NW 33 58 1005.3 - 1.2 - - - - - - -
26/12:20am 17.9 NW 32 58 1004.4 - 0.0 - - - - - - -
26/12:00am 19.5 NW 28 34 1005.2 - 0.0 - - - - - - -
 
Date/Time
WST
Temp
°C
Wind Pressure Rain since
9am
mm
Weather Cloud Vis
km
Sea
Height
m
Swell
Dir  Spd
kts
Gust
kts
hPa Trend Height
m
Period
s
Dir
25/11:30pm 19.5 NW 27 32 1005.6 - 0.0 - - - - - - -
25/11:00pm 19.4 NW 26 30 1005.9 - 0.0 - - - - - - -
25/10:30pm 19.4 NW 23 28 1006.6 - 0.0 - - - - - - -
25/10:00pm 19.2 NW 24 27 1007.1 - 0.0 - - - - - - -
25/09:30pm 19.2 NW 23 27 1007.4 - 0.0 - - - - - - -
25/09:00pm 19.1 NW 23 27 1007.5 - 0.0 - - - - - - -
25/08:30pm 19.2 WNW 25 29 1007.7 - 0.0 - - - - - - -
25/08:00pm 19.3 WNW 25 31 1007.5 - 0.0 - - - - - - -
25/07:30pm 19.4 WNW 25 29 1007.5 - 0.0 - - - - - - -
25/07:00pm 19.3 WNW 21 24 1007.5 - 0.0 - - - - - - -
25/06:30pm 19.3 WNW 19 22 1007.6 - 0.0 - - - - - - -
25/06:00pm 19.3 WNW 17 20 1007.7 - 0.0 - - - - - - -
25/05:30pm 19.7 WNW 17 20 1007.8 - 0.0 - - - - - - -
25/05:00pm 19.7 WNW 18 20 1007.9 - 0.0 - - - - - - -
25/04:30pm 19.9 WNW 16 19 1008.0 - 0.0 - - - - - - -
25/04:00pm 20.4 WNW 15 17 1008.2 - 0.0 - - - - - - -
25/03:30pm 20.4 WNW 14 17 1008.4 - 0.0 - - - - - - -
25/03:00pm 20.2 NW 16 20 1008.6 - 0.0 - - - - - - -
25/02:30pm 20.8 NW 14 16 1008.8 - 0.0 - - - - - - -

Other Formats:

Comma delimited format used in spreadsheet applications
http://www.bom.gov.au/fwo/IDW60701/IDW60701.94601.axf

JavaScript Object Notation format (JSON) in row-major order
http://www.bom.gov.au/fwo/IDW60701/IDW60701.94601.json